Time;durP1;ratioP1;P1;durP2;ratioP2;P2;SDS_P1;SDS_P2;PMS_P1;PMS_P2;Temp;Humidity;BMP_temperature;BMP_pressure;BME280_temperature;BME280_humidity;BME280_pressure;Samples;Min_cycle;Max_cycle;Signal;HPM_P1;HPM_P2
2023/05/19 00:01:17;;;;;;;19.60;8.20;;;;;;;9.47;78.84;99951.29;105563;1252;96506;-90
2023/05/19 00:03:54;;;;;;;21.00;9.10;;;;;;;9.49;78.75;99951.05;105536;1259;96710;-90
2023/05/19 00:06:25;;;;;;;19.70;7.10;;;;;;;9.51;78.84;99952.31;105540;1258;110581;-91
2023/05/19 00:09:29;;;;;;;23.10;8.30;;;;;;;9.53;78.86;99957.70;105603;1254;97091;-91
2023/05/19 00:12:03;;;;;;;20.40;7.30;;;;;;;9.54;78.93;99955.89;105436;1259;107625;-90
2023/05/19 00:14:34;;;;;;;22.10;8.70;;;;;;;9.54;78.93;99954.99;105597;1253;96689;-90
2023/05/19 00:17:03;;;;;;;20.80;8.30;;;;;;;9.56;78.94;99956.51;105722;1257;96591;-89
2023/05/19 00:19:36;;;;;;;20.60;8.40;;;;;;;9.57;78.97;99956.63;105615;1254;109463;-89
2023/05/19 00:22:05;;;;;;;23.70;8.00;;;;;;;9.58;78.94;99957.65;105478;1256;96938;-89
2023/05/19 00:24:33;;;;;;;20.60;7.40;;;;;;;9.59;78.93;99956.15;105562;1257;106250;-90
2023/05/19 00:27:01;;;;;;;22.10;8.30;;;;;;;9.60;78.98;99952.73;105543;1254;96692;-90
2023/05/19 00:30:07;;;;;;;22.90;8.30;;;;;;;9.61;79.00;99955.70;105553;1257;96556;-90
2023/05/19 00:32:53;;;;;;;;;;;;;;;;;;;;;
2023/05/19 00:35:31;;;;;;;20.60;8.10;;;;;;;9.62;78.88;99959.33;105514;1256;97527;-89
2023/05/19 00:38:00;;;;;;;22.00;8.50;;;;;;;9.63;79.04;99959.10;105534;1254;107267;-89
2023/05/19 00:40:34;;;;;;;21.90;8.90;;;;;;;9.66;79.06;99958.60;105638;1250;96561;-90
2023/05/19 00:43:04;;;;;;;20.60;8.30;;;;;;;9.68;79.12;99955.49;105556;1253;96584;-90
2023/05/19 00:45:33;;;;;;;23.60;9.90;;;;;;;9.67;79.00;99955.54;105522;1254;109915;-90
2023/05/19 00:48:00;;;;;;;20.90;8.60;;;;;;;9.66;79.07;99954.15;105495;1253;96543;-89
2023/05/19 00:50:29;;;;;;;23.50;8.70;;;;;;;9.67;79.13;99955.37;105519;1254;107018;-89
2023/05/19 00:53:03;;;;;;;21.40;8.70;;;;;;;9.68;79.19;99952.45;105524;1251;96584;-89
2023/05/19 00:55:39;;;;;;;22.30;9.30;;;;;;;9.70;79.22;99954.50;105528;1254;96577;-89
2023/05/19 00:58:09;;;;;;;24.50;9.30;;;;;;;9.70;79.20;99954.69;105436;1259;109898;-88
2023/05/19 01:00:38;;;;;;;22.00;8.60;;;;;;;9.69;79.16;99951.73;105596;1254;96596;-90
2023/05/19 01:03:09;;;;;;;20.60;9.00;;;;;;;9.68;79.15;99956.86;105576;1254;107641;-89
2023/05/19 01:05:43;;;;;;;22.60;9.40;;;;;;;9.68;79.08;99957.63;105507;1254;97507;-89
2023/05/19 01:08:12;;;;;;;23.60;9.30;;;;;;;9.68;79.07;99955.50;105631;1263;96501;-90
2023/05/19 01:10:40;;;;;;;21.00;9.70;;;;;;;9.68;79.25;99959.36;105481;1257;109335;-89
2023/05/19 01:13:08;;;;;;;21.40;8.60;;;;;;;9.71;79.21;99959.27;105576;1254;96580;-89
2023/05/19 01:35:00;;;;;;;;;;;;;;;9.67;79.33;99956.06;105437;1273;107160;-90
2023/05/19 01:37:30;;;;;;;23.50;8.80;;;;;;;9.65;79.39;99957.59;105542;1254;97942;-90
2023/05/19 01:39:58;;;;;;;22.80;9.00;;;;;;;9.66;79.46;99958.77;105654;1250;96576;-90
2023/05/19 01:42:28;;;;;;;23.70;9.50;;;;;;;9.66;79.36;99958.42;105444;1256;109372;-89
2023/05/19 01:45:00;;;;;;;18.30;8.10;;;;;;;9.64;79.38;99956.38;105457;1251;97912;-89
2023/05/19 01:47:29;;;;;;;20.40;9.30;;;;;;;9.64;79.28;99958.15;105527;1254;107177;-90
2023/05/19 01:49:57;;;;;;;21.50;9.20;;;;;;;9.64;79.38;99954.45;105511;1256;96589;-91
2023/05/19 01:52:25;;;;;;;20.60;8.50;;;;;;;9.62;79.35;99952.63;105543;1254;97397;-91
2023/05/19 01:54:54;;;;;;;19.90;8.60;;;;;;;9.61;79.39;99953.19;105604;1251;109032;-90
2023/05/19 01:57:34;;;;;;;23.60;8.60;;;;;;;9.62;79.23;99955.63;105547;1263;97811;-90
2023/05/19 02:00:46;;;;;;;21.20;8.60;;;;;;;9.60;79.29;99954.65;105559;1256;107234;-90
2023/05/19 02:04:31;;;;;;;23.70;10.00;;;;;;;9.59;79.36;99951.88;105585;1254;96662;-91
2023/05/19 02:08:05;;;;;;;22.30;8.90;;;;;;;9.58;79.37;99954.46;105592;1256;96591;-89
2023/05/19 02:11:03;;;;;;;20.40;8.80;;;;;;;9.56;79.40;99949.75;104942;1263;109892;-88
2023/05/19 02:17:58;;;;;;;22.40;9.10;;;;;;;9.55;79.50;99948.43;105391;1257;110608;-89
2023/05/19 02:20:30;;;;;;;20.00;8.70;;;;;;;9.56;79.51;99944.81;105497;1256;97525;-89
2023/05/19 02:22:59;;;;;;;21.90;9.80;;;;;;;9.57;79.58;99949.88;105641;1254;96734;-88
2023/05/19 02:25:27;;;;;;;27.00;9.40;;;;;;;9.59;79.45;99948.38;105482;1264;109893;-89
2023/05/19 02:27:57;;;;;;;22.20;9.80;;;;;;;9.60;79.55;99944.79;105361;1257;96513;-89
2023/05/19 02:30:25;;;;;;;20.60;8.60;;;;;;;9.62;79.55;99942.15;105443;1256;107624;-89
2023/05/19 02:32:53;;;;;;;22.80;8.10;;;;;;;9.62;79.49;99936.67;105773;1255;97935;-90
2023/05/19 02:35:26;;;;;;;23.20;9.10;;;;;;;9.60;79.41;99938.91;105559;1254;96546;-90
2023/05/19 02:37:57;;;;;;;;;;;;;;;9.61;79.51;99938.52;105465;1260;110092;-89
2023/05/19 02:40:25;;;;;;;22.80;8.50;;;;;;;9.60;79.71;99935.73;105455;1267;96619;-88
2023/05/19 02:46:59;;;;;;;23.30;9.10;;;;;;;9.58;79.55;99934.42;105363;1264;97903;-89
2023/05/19 02:49:41;;;;;;;18.90;7.50;;;;;;;9.59;79.70;99932.73;105690;1254;96708;-89
2023/05/19 02:52:10;;;;;;;21.10;8.30;;;;;;;9.61;79.75;99934.41;105610;1257;110037;-89
2023/05/19 02:54:39;;;;;;;20.70;8.40;;;;;;;9.62;79.62;99936.52;105547;1254;96549;-89
2023/05/19 02:57:07;;;;;;;21.40;8.30;;;;;;;9.62;79.65;99935.05;105475;1251;107114;-87
2023/05/19 02:59:36;;;;;;;19.50;8.20;;;;;;;9.63;79.72;99935.37;105544;1254;96593;-89
2023/05/19 03:02:04;;;;;;;21.50;8.60;;;;;;;9.62;79.56;99935.95;105423;1254;96573;-89
2023/05/19 03:04:50;;;;;;;;;;;;;;;;;;;;;
2023/05/19 03:07:26;;;;;;;18.40;8.10;;;;;;;9.60;79.67;99936.23;105485;1254;97913;-89
2023/05/19 03:09:54;;;;;;;21.10;8.20;;;;;;;9.62;79.63;99935.99;105404;1263;107631;-91
2023/05/19 03:12:22;;;;;;;20.10;8.50;;;;;;;9.62;79.60;99934.39;105350;1256;97526;-90
2023/05/19 03:14:57;;;;;;;20.30;8.70;;;;;;;9.64;79.77;99939.77;105432;1257;96536;-92
2023/05/19 03:17:24;;;;;;;19.30;8.40;;;;;;;9.65;79.71;99937.04;105538;1254;108698;-90
2023/05/19 03:20:25;;;;;;;21.00;8.30;;;;;;;9.67;79.77;99942.40;105979;1254;96721;-90
2023/05/19 03:23:02;;;;;;;19.10;8.00;;;;;;;9.69;79.82;99940.90;105999;1254;107727;-90
2023/05/19 03:26:34;;;;;;;20.50;8.10;;;;;;;9.70;79.68;99947.27;105807;1259;96607;-87
2023/05/19 03:29:19;;;;;;;;;;;;;;;;;;;;;
2023/05/19 03:32:04;;;;;;;17.80;8.00;;;;;;;9.69;79.71;99950.10;105979;1264;109895;-88
2023/05/19 03:38:38;;;;;;;21.10;8.30;;;;;;;9.73;79.79;99954.17;105395;1256;107692;-90
2023/05/19 03:44:25;;;;;;;19.50;8.10;;;;;;;9.74;79.79;99957.28;105349;1254;96600;-91
2023/05/19 03:46:54;;;;;;;15.70;7.40;;;;;;;9.75;79.80;99960.41;105394;1256;110103;-90
2023/05/19 03:49:22;;;;;;;20.40;8.70;;;;;;;9.78;79.89;99957.77;105414;1251;97498;-92
2023/05/19 03:51:50;;;;;;;18.40;8.00;;;;;;;9.80;79.81;99958.91;105262;1256;107340;-93
2023/05/19 03:54:41;;;;;;;;;;;;;;;;;;;;;
2023/05/19 03:58:09;;;;;;;18.70;7.50;;;;;;;9.79;79.75;99963.23;104942;1264;96843;-89
2023/05/19 04:04:40;;;;;;;16.60;7.10;;;;;;;9.77;79.78;99966.70;105012;1252;96768;-94
2023/05/19 04:07:08;;;;;;;19.00;7.40;;;;;;;9.76;79.79;99962.34;105316;1254;107060;-88
2023/05/19 04:09:44;;;;;;;15.90;6.10;;;;;;;9.76;79.82;99962.52;105418;1255;97821;-89
2023/05/19 04:12:12;;;;;;;19.00;7.60;;;;;;;9.75;79.81;99964.15;105456;1251;97502;-94
2023/05/19 04:14:46;;;;;;;18.30;7.00;;;;;;;9.73;79.78;99963.52;105486;1258;109008;-89
2023/05/19 04:17:14;;;;;;;15.30;6.30;;;;;;;9.72;79.71;99968.91;105449;1254;97909;-88
2023/05/19 04:24:16;;;;;;;;;;;;;;;;;;;;;
2023/05/19 04:27:56;;;;;;;17.80;6.10;;;;;;;9.59;79.68;99975.83;105564;1260;97539;-91
2023/05/19 04:30:33;;;;;;;14.40;5.80;;;;;;;9.57;79.69;99976.81;105680;1264;111136;-90
2023/05/19 04:33:03;;;;;;;13.20;5.70;;;;;;;9.60;79.91;99976.46;105344;1263;97419;-91
2023/05/19 04:35:32;;;;;;;15.80;5.90;;;;;;;9.65;79.92;99980.95;105393;1263;107490;-90
2023/05/19 04:38:00;;;;;;;18.20;6.10;;;;;;;9.69;79.93;99979.88;105383;1257;96709;-89
2023/05/19 04:40:32;;;;;;;12.80;5.80;;;;;;;9.73;80.01;99979.14;105831;1255;96586;-85
2023/05/19 04:43:08;;;;;;;14.90;5.50;;;;;;;9.79;80.05;99978.29;105427;1266;109943;-85
2023/05/19 04:45:41;;;;;;;13.30;5.60;;;;;;;9.86;80.01;99975.21;105406;1264;96617;-86
2023/05/19 04:48:17;;;;;;;18.40;5.80;;;;;;;9.93;80.03;99970.96;105541;1256;107630;-86
2023/05/19 04:50:47;;;;;;;15.90;5.70;;;;;;;10.01;80.06;99973.33;105415;1254;96718;-86
2023/05/19 04:53:16;;;;;;;15.10;5.20;;;;;;;10.09;79.93;99972.55;105390;1253;96587;-84
2023/05/19 04:55:50;;;;;;;13.50;5.20;;;;;;;10.12;80.05;99970.63;105506;1257;109760;-83
2023/05/19 04:58:32;;;;;;;13.50;5.30;;;;;;;10.15;80.04;99972.74;105592;1251;97518;-89
2023/05/19 05:01:07;;;;;;;14.10;5.70;;;;;;;10.20;79.93;99971.60;105684;1253;107339;-92
2023/05/19 05:06:41;;;;;;;15.90;6.00;;;;;;;10.26;79.85;99977.08;106849;1261;96562;-89
2023/05/19 05:12:42;;;;;;;16.20;6.40;;;;;;;10.36;79.88;99980.80;107950;1260;96772;-90
2023/05/19 05:15:13;;;;;;;13.10;5.40;;;;;;;10.36;79.84;99975.83;106590;1260;107703;-87
2023/05/19 05:17:42;;;;;;;16.10;5.70;;;;;;;10.34;79.82;99979.80;105140;1261;96607;-85
2023/05/19 05:20:18;;;;;;;14.40;5.10;;;;;;;10.33;79.88;99976.36;105064;1259;96619;-91
2023/05/19 05:23:01;;;;;;;12.80;5.20;;;;;;;10.36;80.10;99981.52;105200;1260;110630;-87
2023/05/19 05:25:32;;;;;;;16.40;5.80;;;;;;;10.41;80.02;99982.27;105094;1261;97131;-90
2023/05/19 05:28:03;;;;;;;14.40;5.80;;;;;;;10.46;80.10;99983.27;105407;1261;107688;-90
2023/05/19 05:30:43;;;;;;;13.70;5.70;;;;;;;10.57;80.22;99988.11;105407;1259;97463;-89
2023/05/19 05:33:30;;;;;;;12.30;5.70;;;;;;;10.69;80.29;99988.70;105192;1256;96618;-89
2023/05/19 05:35:58;;;;;;;17.70;5.60;;;;;;;10.74;80.22;99992.12;104927;1260;110721;-89
2023/05/19 05:41:17;;;;;;;13.90;5.40;;;;;;;10.67;79.98;99989.67;107237;1253;106211;-89
2023/05/19 05:43:47;;;;;;;11.10;4.90;;;;;;;10.66;79.99;99992.77;106534;1254;96699;-90
2023/05/19 05:46:16;;;;;;;11.80;5.00;;;;;;;10.63;79.92;99990.60;106412;1257;99011;-90
2023/05/19 05:48:44;;;;;;;12.40;5.20;;;;;;;10.65;79.91;99987.85;105302;1253;108562;-88
2023/05/19 05:51:16;;;;;;;13.90;5.20;;;;;;;10.64;79.93;99987.70;106700;1253;97521;-91
2023/05/19 06:01:06;;;;;;;14.60;5.70;;;;;;;10.67;79.86;99990.70;107596;1257;96516;-91
2023/05/19 06:13:34;;;;;;;;;;;;;;;;;;;;;
2023/05/19 06:16:15;;;;;;;12.50;5.60;;;;;;;10.72;79.89;99989.04;105170;1266;96510;-89
2023/05/19 06:18:43;;;;;;;14.20;5.60;;;;;;;10.75;79.91;99987.29;105281;1261;109947;-90
2023/05/19 06:21:20;;;;;;;13.10;5.20;;;;;;;10.77;79.82;99987.32;105505;1260;96584;-91
2023/05/19 06:24:08;;;;;;;13.60;5.90;;;;;;;10.83;80.01;99990.17;105246;1260;107440;-91
2023/05/19 06:26:36;;;;;;;10.60;5.20;;;;;;;10.90;79.99;99994.75;105676;1261;96591;-89
2023/05/19 06:29:05;;;;;;;11.70;4.60;;;;;;;10.98;80.02;99997.96;105196;1264;97432;-90
2023/05/19 06:31:33;;;;;;;13.10;5.20;;;;;;;11.04;79.99;99998.54;104864;1267;110619;-88
2023/05/19 06:34:55;;;;;;;;;;;;;;;;;;;;;
2023/05/19 06:40:47;;;;;;;12.50;5.30;;;;;;;11.04;79.95;100005.60;107149;1258;96714;-91
2023/05/19 06:43:16;;;;;;;14.70;5.10;;;;;;;11.08;79.90;100009.79;105938;1265;97070;-90
2023/05/19 06:45:44;;;;;;;13.70;5.50;;;;;;;11.13;79.83;100009.69;105457;1262;109937;-88
2023/05/19 06:48:12;;;;;;;13.60;5.80;;;;;;;11.19;79.83;100015.25;105044;1266;97619;-87
2023/05/19 06:50:45;;;;;;;13.20;5.40;;;;;;;11.22;79.73;100015.00;105017;1265;108347;-90
2023/05/19 06:53:17;;;;;;;12.70;5.40;;;;;;;11.29;79.79;100016.00;105262;1262;96607;-89
2023/05/19 06:55:49;;;;;;;14.60;5.70;;;;;;;11.37;79.74;100019.66;105037;1265;96627;-89
2023/05/19 06:58:40;;;;;;;11.50;5.30;;;;;;;11.33;79.70;100016.32;105737;1263;110091;-89
2023/05/19 07:01:34;;;;;;;13.50;5.30;;;;;;;11.27;79.63;100018.61;106457;1259;96627;-92
2023/05/19 07:20:17;;;;;;;14.10;5.40;;;;;;;11.29;79.52;100010.84;107073;1260;107713;-92
2023/05/19 07:23:03;;;;;;;;;;;;;;;;;;;;;
2023/05/19 07:26:15;;;;;;;15.40;6.30;;;;;;;11.40;79.43;100015.74;106104;1271;96485;-91
2023/05/19 07:29:29;;;;;;;15.10;5.70;;;;;;;11.39;79.55;100017.89;105663;1264;109918;-90
2023/05/19 07:31:57;;;;;;;13.00;5.50;;;;;;;11.35;79.52;100019.39;106043;1262;96607;-90
2023/05/19 07:34:29;;;;;;;13.30;5.70;;;;;;;11.35;79.43;100018.85;105214;1263;107701;-92
2023/05/19 07:36:57;;;;;;;14.00;6.20;;;;;;;11.37;79.46;100018.42;105320;1260;97541;-90
2023/05/19 07:39:28;;;;;;;15.90;6.60;;;;;;;11.37;79.38;100016.25;105926;1260;96518;-88
2023/05/19 07:41:59;;;;;;;13.10;5.50;;;;;;;11.37;79.39;100016.27;105952;1258;109923;-90
2023/05/19 07:45:08;;;;;;;;;;;;;;;;;;;;;
2023/05/19 07:51:08;;;;;;;14.80;6.10;;;;;;;11.45;79.47;100015.24;108159;1256;95275;-91
2023/05/19 07:54:15;;;;;;;15.40;5.70;;;;;;;11.46;79.32;100016.05;107342;1260;96598;-91
2023/05/19 07:57:11;;;;;;;14.00;5.90;;;;;;;11.54;79.40;100020.38;106596;1260;109142;-91
2023/05/19 08:00:20;;;;;;;13.00;6.20;;;;;;;11.62;79.31;100017.77;105722;1262;97255;-90
2023/05/19 08:02:53;;;;;;;15.40;6.60;;;;;;;11.64;79.23;100017.29;107203;1261;107370;-90
2023/05/19 08:05:24;;;;;;;11.90;6.10;;;;;;;11.63;79.21;100016.41;107065;1267;96694;-90
2023/05/19 08:07:53;;;;;;;12.60;6.50;;;;;;;11.68;79.32;100016.36;106692;1261;96592;-91
2023/05/19 08:10:22;;;;;;;12.90;5.80;;;;;;;11.72;79.26;100015.70;106175;1265;110055;-91
2023/05/19 08:12:52;;;;;;;15.70;6.80;;;;;;;11.80;79.32;100014.37;105610;1261;96639;-89
2023/05/19 08:15:23;;;;;;;15.40;7.20;;;;;;;11.89;79.29;100015.05;105623;1266;107541;-89
2023/05/19 08:17:52;;;;;;;16.30;7.10;;;;;;;11.95;79.20;100019.11;106422;1260;96610;-90
2023/05/19 08:20:31;;;;;;;;;;;;;;;;;;;;;
2023/05/19 08:23:14;;;;;;;13.40;6.70;;;;;;;12.07;79.15;100017.66;107471;1261;110189;-92
2023/05/19 08:25:45;;;;;;;17.80;8.60;;;;;;;12.07;79.11;100016.04;106189;1261;195233;-91
2023/05/19 08:28:13;;;;;;;17.00;7.60;;;;;;;12.00;78.98;100016.48;106744;1265;105931;-89
2023/05/19 08:30:41;;;;;;;16.30;7.60;;;;;;;12.02;79.18;100016.92;105571;1267;96587;-88
2023/05/19 08:33:09;;;;;;;16.60;7.80;;;;;;;12.05;78.99;100017.60;105472;1277;96618;-88
2023/05/19 08:35:41;;;;;;;19.80;8.40;;;;;;;12.04;78.87;100018.34;104803;1267;110063;-91
2023/05/19 08:38:10;;;;;;;18.50;8.30;;;;;;;12.08;79.06;100020.66;104978;1261;96702;-86
2023/05/19 08:41:10;;;;;;;16.80;8.30;;;;;;;12.08;78.95;100019.57;104929;1261;107293;-90
2023/05/19 08:43:50;;;;;;;19.20;8.70;;;;;;;12.05;78.95;100022.22;104679;1266;96685;-89
2023/05/19 08:46:20;;;;;;;16.60;8.20;;;;;;;11.97;78.86;100025.06;104853;1260;96693;-90
2023/05/19 08:49:06;;;;;;;14.20;7.40;;;;;;;11.94;79.07;100027.54;104815;1260;107831;-90
2023/05/19 08:51:50;;;;;;;17.20;7.60;;;;;;;11.91;79.02;100029.63;104793;1266;96592;-90
2023/05/19 08:58:08;;;;;;;14.20;7.50;;;;;;;11.95;78.84;100032.09;104872;1264;96608;-91
2023/05/19 09:00:38;;;;;;;17.50;7.60;;;;;;;11.99;78.75;100031.83;104973;1264;96609;-90
2023/05/19 09:03:11;;;;;;;14.80;7.30;;;;;;;12.01;78.82;100033.67;105094;1261;109941;-90
2023/05/19 09:05:50;;;;;;;17.10;7.90;;;;;;;12.00;78.66;100033.77;105612;1261;96547;-91
2023/05/19 09:08:24;;;;;;;14.70;7.50;;;;;;;12.02;78.72;100028.14;105106;1261;106282;-92
2023/05/19 09:10:52;;;;;;;16.90;8.50;;;;;;;12.04;78.65;100028.31;105763;1261;96611;-92
2023/05/19 09:13:20;;;;;;;16.60;7.50;;;;;;;12.10;78.67;100030.42;105464;1264;96523;-92
2023/05/19 09:15:55;;;;;;;17.90;8.80;;;;;;;12.20;78.84;100027.35;107357;1260;108824;-89
2023/05/19 09:18:25;;;;;;;16.50;7.70;;;;;;;12.24;78.60;100023.89;107099;1263;96575;-89
2023/05/19 09:20:59;;;;;;;17.00;8.40;;;;;;;12.29;78.65;100022.52;105939;1260;107648;-87
2023/05/19 09:23:30;;;;;;;18.00;9.00;;;;;;;12.38;78.76;100019.25;104929;1272;96644;-89
2023/05/19 09:26:17;;;;;;;;;;;;;;;;;;;;;
2023/05/19 09:28:57;;;;;;;17.60;8.80;;;;;;;12.42;78.36;100022.34;105162;1266;110393;-88
2023/05/19 09:31:31;;;;;;;16.10;8.60;;;;;;;12.40;78.36;100018.77;105163;1269;97833;-89
2023/05/19 09:34:00;;;;;;;16.10;8.40;;;;;;;12.45;78.50;100017.70;105160;1276;107649;-91
2023/05/19 09:36:29;;;;;;;17.20;8.90;;;;;;;12.52;78.31;100016.16;104978;1259;97369;-89
2023/05/19 09:39:03;;;;;;;19.00;8.60;;;;;;;12.50;78.33;100010.59;105641;1260;96503;-91
2023/05/19 09:41:32;;;;;;;17.40;8.40;;;;;;;12.52;78.28;100014.58;105048;1260;109946;-86
2023/05/19 09:43:59;;;;;;;15.90;8.30;;;;;;;12.60;78.39;100013.75;105006;1260;96616;-88
2023/05/19 09:46:28;;;;;;;19.80;8.60;;;;;;;12.71;78.42;100013.16;104995;1265;108262;-90
2023/05/19 09:49:02;;;;;;;22.20;8.70;;;;;;;12.76;78.32;100011.92;104958;1263;97508;-91
2023/05/19 09:55:01;;;;;;;17.60;8.60;;;;;;;12.89;78.13;100011.77;106488;1265;111489;-87
2023/05/19 09:57:39;;;;;;;17.50;8.40;;;;;;;12.90;78.16;100014.04;104763;1268;96598;-88
2023/05/19 10:03:15;;;;;;;16.00;8.30;;;;;;;12.93;78.19;100016.35;105013;1261;97531;-89
2023/05/19 10:05:43;;;;;;;18.20;8.40;;;;;;;12.91;77.85;100019.33;104917;1259;97101;-90
2023/05/19 10:08:13;;;;;;;17.50;9.30;;;;;;;12.90;78.06;100016.38;104975;1264;109369;-90
2023/05/19 10:10:41;;;;;;;19.10;8.60;;;;;;;12.92;77.92;100020.48;105242;1259;97164;-88
2023/05/19 10:13:10;;;;;;;15.80;8.20;;;;;;;12.94;77.88;100026.80;105072;1261;107632;-90
2023/05/19 10:15:42;;;;;;;17.80;9.20;;;;;;;12.97;77.99;100023.55;105088;1259;96608;-87
2023/05/19 10:21:28;;;;;;;14.20;7.70;;;;;;;12.98;77.82;100022.56;105907;1262;108309;-87
2023/05/19 10:23:56;;;;;;;16.60;8.30;;;;;;;12.97;77.86;100019.11;105421;1261;97169;-88
2023/05/19 10:26:25;;;;;;;19.10;9.30;;;;;;;12.95;77.74;100021.36;105237;1267;107798;-89
2023/05/19 10:28:57;;;;;;;18.00;9.30;;;;;;;12.96;77.72;100021.83;105058;1261;96592;-88
2023/05/19 10:31:33;;;;;;;18.00;9.70;;;;;;;12.98;77.72;100022.10;105186;1265;97555;-88
2023/05/19 10:34:22;;;;;;;18.40;9.50;;;;;;;12.99;77.70;100018.64;105157;1260;109382;-88
2023/05/19 10:37:11;;;;;;;17.20;9.30;;;;;;;13.03;77.86;100015.34;104876;1265;97999;-88
2023/05/19 10:39:42;;;;;;;19.10;9.50;;;;;;;13.06;77.77;100012.64;105105;1260;107663;-89
2023/05/19 10:42:20;;;;;;;17.60;9.10;;;;;;;13.12;77.51;100010.23;105079;1265;96603;-88
2023/05/19 10:45:19;;;;;;;17.70;8.60;;;;;;;13.22;77.65;100007.80;104854;1265;96663;-92
2023/05/19 10:47:51;;;;;;;16.80;8.50;;;;;;;13.34;77.54;100004.14;104994;1262;110063;-89
2023/05/19 10:50:20;;;;;;;18.80;9.60;;;;;;;13.37;77.54;100004.12;105257;1260;97570;-89
2023/05/19 10:52:54;;;;;;;16.70;8.60;;;;;;;13.33;77.42;100008.63;105266;1262;107709;-88
2023/05/19 10:55:57;;;;;;;19.80;9.90;;;;;;;13.36;77.44;100008.44;105273;1263;96648;-89
2023/05/19 10:58:59;;;;;;;20.20;10.30;;;;;;;13.33;77.29;100006.02;105037;1260;96549;-89
2023/05/19 11:01:33;;;;;;;18.80;9.40;;;;;;;13.33;77.34;100004.05;104986;1264;109972;-88
2023/05/19 11:04:07;;;;;;;19.00;9.50;;;;;;;13.27;77.19;100001.73;104992;1260;97541;-87
2023/05/19 11:06:42;;;;;;;18.60;9.40;;;;;;;13.25;77.19;100002.45;104842;1265;107154;-89
2023/05/19 11:09:32;;;;;;;21.20;10.00;;;;;;;13.21;77.24;100001.26;104858;1267;97886;-90
2023/05/19 11:12:09;;;;;;;19.00;10.20;;;;;;;13.23;77.19;100002.73;104718;1265;96603;-89
2023/05/19 11:14:39;;;;;;;19.60;10.70;;;;;;;13.20;77.05;100003.64;104968;1260;109954;-89
2023/05/19 11:17:16;;;;;;;20.50;11.40;;;;;;;13.16;77.03;100004.98;104845;1261;96599;-90
2023/05/19 11:20:03;;;;;;;20.40;10.80;;;;;;;13.20;77.12;100008.30;104986;1261;108431;-90
2023/05/19 11:22:42;;;;;;;17.90;10.20;;;;;;;13.24;76.97;100009.24;104909;1261;96616;-90
2023/05/19 11:25:10;;;;;;;18.50;9.90;;;;;;;13.30;76.97;100010.61;104940;1260;96606;-88
2023/05/19 11:27:39;;;;;;;19.00;10.60;;;;;;;13.43;77.16;100007.85;104740;1269;109600;-88
2023/05/19 11:30:16;;;;;;;18.90;10.50;;;;;;;13.52;77.08;100012.50;105281;1261;96702;-89
2023/05/19 11:33:15;;;;;;;20.10;11.20;;;;;;;13.57;76.84;100010.08;105331;1260;107173;-88
2023/05/19 11:35:49;;;;;;;18.60;9.60;;;;;;;13.58;76.84;100016.41;104646;1263;97539;-86
2023/05/19 11:38:20;;;;;;;19.20;10.70;;;;;;;13.60;76.72;100016.67;104979;1260;96597;-80
2023/05/19 11:40:52;;;;;;;19.10;10.70;;;;;;;13.56;76.61;100012.83;104767;1261;109973;-82
2023/05/19 11:43:25;;;;;;;18.70;9.90;;;;;;;13.52;76.80;100008.80;105009;1260;97827;-82
2023/05/19 11:45:54;;;;;;;21.00;11.00;;;;;;;13.47;76.60;100009.30;105614;1260;107699;-82
2023/05/19 11:48:24;;;;;;;21.60;11.00;;;;;;;13.47;76.54;100010.00;104747;1261;96609;-80
2023/05/19 11:50:58;;;;;;;19.40;10.80;;;;;;;13.42;76.49;100013.94;104688;1265;97952;-86
2023/05/19 11:53:30;;;;;;;20.40;10.90;;;;;;;13.36;76.52;100015.06;105080;1265;109968;-88
2023/05/19 11:56:04;;;;;;;19.60;10.90;;;;;;;13.29;76.41;100016.42;105204;1262;96638;-84
2023/05/19 11:58:32;;;;;;;20.50;11.10;;;;;;;13.31;76.53;100017.01;104868;1265;107759;-84
2023/05/19 12:01:03;;;;;;;21.50;11.60;;;;;;;13.38;76.57;100017.04;104983;1265;96747;-86
2023/05/19 12:03:39;;;;;;;21.80;10.50;;;;;;;13.49;76.64;100016.32;104663;1265;97990;-88
2023/05/19 12:06:16;;;;;;;18.10;9.80;;;;;;;13.61;76.69;100012.09;104899;1265;109928;-87
2023/05/19 12:08:44;;;;;;;19.10;10.20;;;;;;;13.67;76.59;100013.44;104992;1265;97866;-87
2023/05/19 12:11:13;;;;;;;19.70;10.40;;;;;;;13.70;76.37;100014.84;104980;1260;107692;-87
2023/05/19 12:13:41;;;;;;;19.10;10.50;;;;;;;13.68;76.26;100012.66;104859;1263;97530;-86
2023/05/19 12:16:10;;;;;;;20.20;10.80;;;;;;;13.70;76.25;100015.19;105144;1260;96599;-87
2023/05/19 12:18:41;;;;;;;22.10;11.70;;;;;;;13.73;76.09;100012.13;105178;1265;109382;-88
2023/05/19 12:21:09;;;;;;;19.70;10.80;;;;;;;13.80;76.33;100012.20;105199;1267;97850;-87
2023/05/19 12:23:37;;;;;;;18.10;10.20;;;;;;;13.96;76.36;100013.58;105172;1265;107427;-89
2023/05/19 12:26:06;;;;;;;19.90;10.70;;;;;;;14.15;76.47;100010.98;105614;1260;96630;-83
2023/05/19 12:28:35;;;;;;;20.70;10.40;;;;;;;14.31;76.52;100003.88;105074;1265;96547;-83
2023/05/19 12:31:03;;;;;;;20.00;10.20;;;;;;;14.41;76.32;100003.38;104871;1265;109981;-84
2023/05/19 12:33:33;;;;;;;20.40;11.50;;;;;;;14.47;76.19;100001.16;105186;1260;96598;-84
2023/05/19 12:36:03;;;;;;;18.00;10.10;;;;;;;14.50;76.11;100002.82;105985;1260;107364;-86
2023/05/19 12:38:32;;;;;;;18.90;9.90;;;;;;;14.51;75.94;100003.36;105363;1260;96607;-86
2023/05/19 12:41:05;;;;;;;19.00;10.40;;;;;;;14.49;75.91;100000.45;105511;1265;96905;-87
2023/05/19 12:43:33;;;;;;;20.00;11.00;;;;;;;14.47;75.89;100000.73;105386;1267;109936;-87
2023/05/19 12:46:12;;;;;;;19.90;9.80;;;;;;;14.39;75.75;100000.27;105253;1265;96460;-86
2023/05/19 12:48:42;;;;;;;18.50;9.70;;;;;;;14.33;75.79;99999.67;104996;1262;107697;-89
2023/05/19 12:51:25;;;;;;;19.70;9.40;;;;;;;14.27;75.63;99998.67;104946;1262;96627;-86
2023/05/19 12:53:53;;;;;;;23.40;11.90;;;;;;;14.20;75.67;100000.80;104894;1260;97838;-85
2023/05/19 12:56:25;;;;;;;19.20;10.20;;;;;;;14.17;75.47;100005.27;105465;1260;109856;-88
2023/05/19 12:58:54;;;;;;;20.20;9.90;;;;;;;14.13;75.62;100000.55;104928;1262;96518;-85
2023/05/19 13:01:25;;;;;;;22.40;11.20;;;;;;;14.12;75.67;100001.90;104903;1265;107737;-85
2023/05/19 13:03:53;;;;;;;18.20;10.00;;;;;;;14.09;75.61;100003.67;104946;1265;96524;-83
2023/05/19 13:06:21;;;;;;;18.60;10.50;;;;;;;14.04;75.63;100008.19;105237;1260;96581;-85
2023/05/19 13:08:53;;;;;;;20.30;10.80;;;;;;;13.96;75.36;100001.98;104932;1265;109071;-85
2023/05/19 13:11:23;;;;;;;20.50;10.80;;;;;;;13.90;75.57;100000.95;105097;1265;96710;-84
2023/05/19 13:13:51;;;;;;;23.80;10.80;;;;;;;13.86;75.48;99999.83;104734;1265;107657;-84
2023/05/19 13:16:19;;;;;;;21.40;11.50;;;;;;;13.80;75.40;99998.63;104845;1265;96619;-86
2023/05/19 13:18:47;;;;;;;21.40;11.50;;;;;;;13.77;75.26;99997.64;104862;1260;96743;-86
2023/05/19 13:21:18;;;;;;;21.00;11.20;;;;;;;13.73;75.34;100000.60;104930;1265;109945;-85
2023/05/19 13:23:46;;;;;;;29.40;13.00;;;;;;;13.71;75.37;99998.38;104860;1260;97568;-85
2023/05/19 13:26:16;;;;;;;21.10;11.90;;;;;;;13.67;75.28;99999.70;104829;1261;106904;-85
2023/05/19 13:28:47;;;;;;;22.00;11.10;;;;;;;13.67;75.36;100006.52;105011;1260;96605;-83
2023/05/19 13:31:14;;;;;;;21.80;11.70;;;;;;;13.67;75.38;100006.48;105327;1265;96634;-83
2023/05/19 13:33:42;;;;;;;21.50;12.10;;;;;;;13.71;75.37;100005.13;105012;1260;109688;-84
2023/05/19 13:36:11;;;;;;;19.70;10.80;;;;;;;13.74;75.24;100006.23;105089;1265;96638;-85
2023/05/19 13:38:43;;;;;;;22.80;13.40;;;;;;;13.76;75.20;100005.17;104836;1260;107378;-79
2023/05/19 13:41:11;;;;;;;22.40;11.50;;;;;;;13.74;75.10;100002.66;104750;1260;96656;-79
2023/05/19 13:43:41;;;;;;;21.00;10.10;;;;;;;13.73;75.07;100003.61;104805;1265;96530;-81
2023/05/19 13:46:09;;;;;;;19.70;10.00;;;;;;;13.72;75.04;99999.41;104718;1265;108637;-80
2023/05/19 13:48:38;;;;;;;20.40;10.20;;;;;;;13.70;75.05;100005.00;104655;1276;97294;-79
2023/05/19 13:51:05;;;;;;;21.20;10.30;;;;;;;13.71;75.04;100005.86;106275;1260;107616;-80